Time;durP1;ratioP1;P1;durP2;ratioP2;P2;SDS_P1;SDS_P2;PMS_P1;PMS_P2;Temp;Humidity;BMP_temperature;BMP_pressure;BME280_temperature;BME280_humidity;BME280_pressure;Samples;Min_cycle;Max_cycle;Signal;HPM_P1;HPM_P2
2022/12/09 00:01:25;;;;;;;24.15;12.95;;;1.50;18.90;;;;;;5011779;28;20034;-84
2022/12/09 00:03:53;;;;;;;25.85;14.27;;;1.50;19.90;;;;;;5015169;28;20046;-84
2022/12/09 00:06:25;;;;;;;24.50;15.43;;;1.40;21.10;;;;;;5015914;28;20467;-84
2022/12/09 00:08:52;;;;;;;25.38;14.63;;;1.30;23.50;;;;;;5015037;28;20033;-83
2022/12/09 00:11:20;;;;;;;23.58;13.48;;;1.30;26.00;;;;;;5014569;28;20471;-84
2022/12/09 00:13:51;;;;;;;25.17;14.70;;;1.30;28.80;;;;;;5017548;28;20042;-83
2022/12/09 00:16:17;;;;;;;;;;;1.20;31.40;;;;;;5015912;28;20033;-83
2022/12/09 00:18:43;;;;;;;19.17;9.88;;;1.20;33.20;;;;;;5014475;28;19915;-79
2022/12/09 00:21:24;;;;;;;20.20;11.05;;;1.10;35.00;;;;;;5014150;28;20387;-85
2022/12/09 00:23:52;;;;;;;22.00;13.10;;;1.00;35.30;;;;;;4996486;28;20065;-84
2022/12/09 00:26:20;;;;;;;22.25;11.85;;;0.90;37.00;;;;;;5014920;28;20041;-84
2022/12/09 00:28:48;;;;;;;23.98;13.35;;;0.80;37.70;;;;;;5014636;28;20060;-83
2022/12/09 00:31:18;;;;;;;23.00;13.35;;;0.60;39.70;;;;;;5016782;28;20038;-81
2022/12/09 00:33:45;;;;;;;19.20;10.85;;;0.60;41.40;;;;;;5018648;28;20038;-83
2022/12/09 00:36:13;;;;;;;22.42;12.32;;;0.50;42.60;;;;;;5015374;28;20041;-84
2022/12/09 00:38:41;;;;;;;19.38;12.43;;;0.30;43.20;;;;;;5015390;28;20034;-83
2022/12/09 00:41:08;;;;;;;23.85;13.38;;;0.10;46.70;;;;;;5013257;28;20053;-83
2022/12/09 00:43:34;;;;;;;20.17;10.75;;;0.00;51.20;;;;;;5015190;28;20025;-84
2022/12/09 00:46:01;;;;;;;24.65;13.57;;;-0.10;58.60;;;;;;5014035;28;20034;-84
2022/12/09 00:48:27;;;;;;;20.70;11.48;;;-0.10;63.40;;;;;;5015045;28;20034;-84
2022/12/09 00:50:53;;;;;;;21.58;11.55;;;-0.10;67.50;;;;;;5013392;28;20022;-84
2022/12/09 00:53:20;;;;;;;21.20;10.85;;;-0.10;72.90;;;;;;5015261;28;20109;-83
2022/12/09 00:55:46;;;;;;;19.00;11.45;;;-0.10;74.90;;;;;;5014373;28;20467;-82
2022/12/09 00:58:13;;;;;;;20.25;11.10;;;-0.10;78.00;;;;;;4997356;28;20402;-83
2022/12/09 01:00:39;;;;;;;21.48;11.55;;;-0.20;79.90;;;;;;5013918;28;20463;-83
2022/12/09 01:03:10;;;;;;;23.27;11.27;;;-0.30;81.10;;;;;;5013850;28;20069;-84
2022/12/09 01:05:36;;;;;;;21.37;11.47;;;-0.30;82.00;;;;;;4997834;28;20406;-83
2022/12/09 01:08:02;;;;;;;25.05;13.20;;;-0.30;83.50;;;;;;5013728;28;20325;-83
2022/12/09 01:10:28;;;;;;;26.67;12.20;;;-0.40;81.00;;;;;;5013297;28;20046;-84
2022/12/09 01:12:54;;;;;;;24.60;12.52;;;-0.50;79.20;;;;;;4996111;28;20041;-83
2022/12/09 01:15:21;;;;;;;23.40;11.48;;;-0.60;79.50;;;;;;4978296;28;20049;-84
2022/12/09 01:17:47;;;;;;;28.35;11.75;;;-0.50;82.60;;;;;;5013551;28;20038;-80
2022/12/09 01:20:13;;;;;;;26.42;13.88;;;-0.50;84.80;;;;;;5013521;28;20046;-83
2022/12/09 01:22:39;;;;;;;22.00;12.90;;;-0.60;86.10;;;;;;5016280;28;20030;-84
2022/12/09 01:25:05;;;;;;;27.58;15.98;;;-0.50;88.10;;;;;;5017515;28;20032;-83
2022/12/09 01:27:32;;;;;;;22.55;11.32;;;-0.70;82.60;;;;;;5014321;28;20495;-84
2022/12/09 01:29:58;;;;;;;21.70;11.35;;;-0.80;85.70;;;;;;5013281;28;20030;-83
2022/12/09 01:32:24;;;;;;;21.23;11.55;;;-0.90;90.00;;;;;;5013987;28;20034;-83
2022/12/09 01:34:51;;;;;;;32.20;13.82;;;-0.90;92.80;;;;;;4995929;28;20045;-83
2022/12/09 01:37:17;;;;;;;31.55;12.48;;;-0.90;92.80;;;;;;5014322;28;20034;-84
2022/12/09 01:39:43;;;;;;;25.13;11.73;;;-1.00;92.30;;;;;;5013302;28;20030;-81
2022/12/09 01:42:20;;;;;;;25.83;11.80;;;-1.10;91.00;;;;;;5013272;28;20026;-83
2022/12/09 01:45:35;;;;;;;24.17;11.02;;;-1.20;92.60;;;;;;5013747;28;20038;-79
2022/12/09 01:48:17;;;;;;;25.95;12.38;;;-1.10;96.00;;;;;;4994279;28;20054;-84
2022/12/09 01:50:54;;;;;;;20.92;12.32;;;-1.20;95.40;;;;;;5013183;28;20037;-84
2022/12/09 01:53:24;;;;;;;28.35;12.27;;;-1.30;97.20;;;;;;4997927;28;20498;-83
2022/12/09 01:55:54;;;;;;;22.42;11.82;;;-1.30;98.60;;;;;;4994932;28;20042;-83
2022/12/09 01:58:20;;;;;;;29.45;13.63;;;-1.40;99.90;;;;;;4996841;28;20045;-83
2022/12/09 02:00:47;;;;;;;26.85;12.55;;;-1.30;99.90;;;;;;4995433;28;20399;-79
2022/12/09 02:03:14;;;;;;;27.83;13.60;;;-1.40;99.90;;;;;;4997484;28;20053;-83
2022/12/09 02:05:41;;;;;;;22.25;11.75;;;-1.40;99.90;;;;;;4996081;28;20157;-83
2022/12/09 02:08:13;;;;;;;25.23;12.63;;;-1.40;99.90;;;;;;4995548;28;20617;-83
2022/12/09 02:10:54;;;;;;;23.40;12.10;;;-1.40;99.90;;;;;;4995429;28;20050;-83
2022/12/09 02:13:50;;;;;;;21.77;11.45;;;-1.30;99.90;;;;;;4981629;28;20372;-84
2022/12/09 02:16:20;;;;;;;24.23;12.73;;;-1.20;99.90;;;;;;5003105;28;20056;-83
2022/12/09 02:19:24;;;;;;;30.85;14.40;;;-1.10;99.90;;;;;;5015099;28;20057;-79
2022/12/09 02:21:57;;;;;;;26.67;12.68;;;-1.10;99.90;;;;;;4995181;28;20048;-79
2022/12/09 02:24:50;;;;;;;24.10;10.95;;;-1.20;99.90;;;;;;5013556;28;20034;-84
2022/12/09 02:27:23;;;;;;;25.90;12.30;;;-1.10;99.90;;;;;;5002846;28;20046;-83
2022/12/09 02:30:06;;;;;;;29.55;12.63;;;-1.00;99.90;;;;;;4993431;28;20049;-83
2022/12/09 02:32:57;;;;;;;25.27;12.60;;;-1.00;99.90;;;;;;4995727;28;20102;-84
2022/12/09 02:35:32;;;;;;;27.77;13.95;;;-1.10;99.90;;;;;;4996554;28;20042;-84
2022/12/09 02:38:07;;;;;;;27.30;13.65;;;-1.00;99.90;;;;;;4994431;28;20052;-84
2022/12/09 02:40:47;;;;;;;29.33;13.23;;;-1.00;99.90;;;;;;5012589;28;20121;-84
2022/12/09 02:43:16;;;;;;;24.20;11.25;;;-1.00;99.90;;;;;;5012785;28;20046;-84
2022/12/09 02:45:44;;;;;;;27.10;12.52;;;-1.00;99.90;;;;;;4994648;28;20042;-84
2022/12/09 02:48:14;;;;;;;26.48;13.60;;;-0.90;99.90;;;;;;4993683;28;20073;-84
2022/12/09 02:50:42;;;;;;;;;;;-0.90;99.90;;;;;;4995254;28;20042;-84
2022/12/09 02:53:13;;;;;;;26.70;13.23;;;-0.90;99.90;;;;;;4995008;28;19902;-84
2022/12/09 02:55:42;;;;;;;25.48;11.65;;;-1.00;99.90;;;;;;5013123;28;20110;-84
2022/12/09 02:58:09;;;;;;;23.70;11.50;;;-1.10;99.90;;;;;;4995397;28;20061;-84
2022/12/09 03:00:38;;;;;;;21.08;10.13;;;-1.20;99.90;;;;;;5012415;28;20032;-84
2022/12/09 03:03:08;;;;;;;18.38;10.85;;;-1.30;99.90;;;;;;5011516;28;20050;-84
2022/12/09 03:05:48;;;;;;;18.48;10.80;;;-1.30;99.90;;;;;;5014440;28;20460;-84
2022/12/09 03:08:50;;;;;;;22.75;11.05;;;-1.40;99.90;;;;;;5015757;28;20073;-84
2022/12/09 03:11:19;;;;;;;17.55;8.65;;;-1.40;99.90;;;;;;5009702;28;20030;-85
2022/12/09 03:13:55;;;;;;;20.30;10.55;;;-1.50;99.90;;;;;;4997315;28;20042;-85
2022/12/09 03:16:43;;;;;;;17.98;10.27;;;-1.50;99.90;;;;;;5001476;28;20033;-84
2022/12/09 03:19:30;;;;;;;21.55;11.15;;;-1.40;99.90;;;;;;5032299;28;20064;-83
2022/12/09 03:21:59;;;;;;;25.65;10.98;;;-1.50;99.90;;;;;;5019483;28;20046;-84
2022/12/09 03:24:37;;;;;;;24.38;12.00;;;-1.50;99.90;;;;;;5013040;28;20045;-85
2022/12/09 03:27:11;;;;;;;26.42;14.15;;;-1.60;99.90;;;;;;5011913;28;20042;-84
2022/12/09 03:29:41;;;;;;;24.40;11.07;;;-1.60;99.90;;;;;;4994841;28;20038;-85
2022/12/09 03:32:10;;;;;;;24.83;11.10;;;-1.70;99.90;;;;;;5011934;28;20096;-85
2022/12/09 03:34:41;;;;;;;24.33;12.02;;;-1.70;99.90;;;;;;4994688;28;20142;-85
2022/12/09 03:37:09;;;;;;;37.42;17.95;;;-1.80;99.90;;;;;;5017685;28;20052;-85
2022/12/09 03:39:39;;;;;;;31.13;16.27;;;-1.80;99.90;;;;;;5027301;28;20038;-84
2022/12/09 03:42:09;;;;;;;21.13;11.35;;;-1.90;99.90;;;;;;5026738;28;20038;-83
2022/12/09 03:44:36;;;;;;;24.73;12.57;;;-1.90;99.90;;;;;;5022512;28;20034;-85
2022/12/09 03:47:06;;;;;;;25.45;11.32;;;-1.90;99.90;;;;;;4976923;28;20056;-84
2022/12/09 03:49:33;;;;;;;27.85;12.88;;;-1.90;99.90;;;;;;5010840;28;20045;-84
2022/12/09 03:52:29;;;;;;;21.80;12.40;;;-1.90;99.90;;;;;;5011372;28;20041;-83
2022/12/09 03:55:00;;;;;;;23.00;11.70;;;-2.00;99.90;;;;;;5011441;28;20030;-79
2022/12/09 03:57:28;;;;;;;22.35;11.32;;;-1.90;99.90;;;;;;5019140;28;20042;-84
2022/12/09 03:59:59;;;;;;;23.17;12.10;;;-2.00;99.90;;;;;;5018463;28;20136;-78
2022/12/09 04:02:26;;;;;;;23.23;11.88;;;-2.10;99.90;;;;;;5013987;28;20054;-83
2022/12/09 04:04:52;;;;;;;20.05;10.55;;;-2.10;99.90;;;;;;5005632;28;20041;-79
2022/12/09 04:07:18;;;;;;;24.10;12.07;;;-2.20;99.90;;;;;;4995717;28;20498;-85
2022/12/09 04:09:44;;;;;;;24.23;11.93;;;-2.20;99.90;;;;;;5012223;28;20049;-84
2022/12/09 04:12:11;;;;;;;26.42;13.35;;;-2.10;99.90;;;;;;5011482;28;20112;-84
2022/12/09 04:14:37;;;;;;;23.20;11.23;;;-2.20;99.90;;;;;;4994693;28;20041;-85
2022/12/09 04:17:04;;;;;;;23.67;10.88;;;-2.10;99.90;;;;;;5011190;28;20038;-84
2022/12/09 04:19:30;;;;;;;20.23;10.82;;;-2.10;99.90;;;;;;5010923;28;20036;-83
2022/12/09 04:21:56;;;;;;;22.67;10.65;;;-2.20;99.90;;;;;;5011507;28;20468;-78
2022/12/09 04:24:22;;;;;;;24.10;11.98;;;-2.20;99.90;;;;;;5011250;28;20037;-83
2022/12/09 04:26:48;;;;;;;26.98;12.95;;;-2.20;99.90;;;;;;5011567;28;20363;-84
2022/12/09 04:29:14;;;;;;;28.80;13.70;;;-2.10;99.90;;;;;;4992211;28;20033;-83
2022/12/09 04:31:41;;;;;;;29.85;14.35;;;-2.00;99.90;;;;;;5011866;28;20045;-84
2022/12/09 04:34:07;;;;;;;27.65;12.63;;;-2.00;99.90;;;;;;5011123;28;20052;-84
2022/12/09 04:36:33;;;;;;;31.88;14.63;;;-1.90;99.90;;;;;;5011189;28;20033;-84
2022/12/09 04:38:59;;;;;;;28.98;14.48;;;-1.90;99.90;;;;;;5010908;28;20041;-83
2022/12/09 04:41:27;;;;;;;32.05;14.38;;;-1.90;99.90;;;;;;5010847;28;20382;-84
2022/12/09 04:43:53;;;;;;;26.58;13.55;;;-1.90;99.90;;;;;;5011609;28;20033;-85
2022/12/09 04:46:19;;;;;;;30.77;14.00;;;-1.80;99.90;;;;;;5011025;28;20048;-85
2022/12/09 04:48:46;;;;;;;30.02;14.27;;;-1.70;99.90;;;;;;4997302;28;20051;-85
2022/12/09 04:51:14;;;;;;;31.30;14.48;;;-1.70;99.90;;;;;;5016704;28;20050;-87
2022/12/09 04:53:40;;;;;;;29.73;14.40;;;-1.60;99.90;;;;;;5014760;28;20034;-84
2022/12/09 04:56:10;;;;;;;27.17;14.88;;;-1.50;99.90;;;;;;5014182;28;20042;-82
2022/12/09 04:58:37;;;;;;;26.65;13.85;;;-1.50;99.90;;;;;;5014502;28;20060;-82
2022/12/09 05:01:07;;;;;;;23.40;12.23;;;-1.50;99.90;;;;;;5010090;28;20332;-77
2022/12/09 05:03:34;;;;;;;29.40;12.60;;;-1.50;99.90;;;;;;5010731;28;20042;-82
2022/12/09 05:06:06;;;;;;;25.27;12.32;;;-1.50;99.90;;;;;;5015068;28;20025;-82
2022/12/09 05:08:33;;;;;;;31.90;13.98;;;-1.50;99.90;;;;;;5014309;28;20471;-83
2022/12/09 05:10:59;;;;;;;25.45;13.45;;;-1.50;99.90;;;;;;5013873;28;20030;-78
2022/12/09 05:13:26;;;;;;;25.67;12.23;;;-1.50;99.90;;;;;;5013592;28;20040;-82
2022/12/09 05:16:07;;;;;;;30.90;14.15;;;-1.50;99.90;;;;;;4995711;28;20033;-84
2022/12/09 05:18:33;;;;;;;32.38;13.00;;;-1.50;99.90;;;;;;5014640;28;20045;-82
2022/12/09 05:21:07;;;;;;;23.13;13.85;;;-1.40;99.90;;;;;;5013765;28;20475;-79
2022/12/09 05:23:34;;;;;;;26.60;13.73;;;-1.40;99.90;;;;;;5014159;28;20030;-80
2022/12/09 05:26:06;;;;;;;28.60;14.18;;;-1.40;99.90;;;;;;5007590;28;20038;-79
2022/12/09 05:28:33;;;;;;;26.48;14.00;;;-1.40;99.90;;;;;;5014574;28;20045;-82
2022/12/09 05:31:02;;;;;;;23.35;13.20;;;-1.40;99.90;;;;;;5014148;28;20036;-78
2022/12/09 05:33:29;;;;;;;27.05;14.13;;;-1.40;99.90;;;;;;5013131;28;20038;-82
2022/12/09 05:35:55;;;;;;;31.45;12.52;;;-1.40;99.90;;;;;;4996724;28;20460;-81
2022/12/09 05:38:22;;;;;;;30.88;13.30;;;-1.40;99.90;;;;;;5013601;28;20486;-82
2022/12/09 05:40:49;;;;;;;23.33;13.70;;;-1.30;99.90;;;;;;5013519;28;20376;-82
2022/12/09 05:43:15;;;;;;;30.13;13.65;;;-1.30;99.90;;;;;;5016282;28;20041;-82
2022/12/09 05:45:41;;;;;;;30.60;13.90;;;-1.40;99.90;;;;;;5015091;28;20030;-81
2022/12/09 05:48:09;;;;;;;46.90;25.20;;;-1.40;99.90;;;;;;5012966;28;20056;-81
2022/12/09 05:50:35;;;;;;;38.92;18.85;;;-1.50;99.90;;;;;;5013870;28;20041;-81
2022/12/09 05:53:01;;;;;;;34.92;18.30;;;-1.50;99.90;;;;;;5012050;28;20026;-80
2022/12/09 05:55:27;;;;;;;29.42;14.95;;;-1.50;99.90;;;;;;4996595;28;20034;-81
2022/12/09 05:57:54;;;;;;;30.15;14.45;;;-1.70;99.90;;;;;;4994620;28;20038;-83
2022/12/09 06:00:21;;;;;;;31.60;14.20;;;-1.70;99.90;;;;;;5010222;28;20606;-82
2022/12/09 06:02:47;;;;;;;31.58;16.00;;;-1.70;99.90;;;;;;5012581;28;20054;-82
2022/12/09 06:05:13;;;;;;;30.40;14.90;;;-1.80;99.90;;;;;;4994788;28;20387;-82
2022/12/09 06:07:39;;;;;;;29.65;13.60;;;-1.80;99.90;;;;;;5012908;28;20053;-80
2022/12/09 06:10:06;;;;;;;32.45;14.95;;;-1.80;99.90;;;;;;5008539;28;20061;-79
2022/12/09 06:12:32;;;;;;;33.75;14.82;;;-1.90;99.90;;;;;;5012386;28;20033;-83
2022/12/09 06:14:58;;;;;;;33.58;14.82;;;-1.90;99.90;;;;;;5011380;28;20032;-78
2022/12/09 06:17:25;;;;;;;36.72;16.65;;;-1.90;99.90;;;;;;5010504;28;20030;-82
2022/12/09 06:19:51;;;;;;;31.67;14.43;;;-2.00;99.90;;;;;;5012225;28;20029;-82
2022/12/09 06:22:17;;;;;;;39.92;18.75;;;-2.10;99.90;;;;;;5011977;28;20026;-81
2022/12/09 06:24:43;;;;;;;28.10;16.27;;;-2.10;99.90;;;;;;4994160;28;20022;-81
2022/12/09 06:27:09;;;;;;;35.25;18.65;;;-2.20;99.90;;;;;;5012267;28;20025;-81
2022/12/09 06:29:35;;;;;;;33.05;16.58;;;-2.10;99.90;;;;;;5010222;28;20030;-81
2022/12/09 06:32:03;;;;;;;29.55;14.25;;;-2.20;99.90;;;;;;5011445;28;20045;-77
2022/12/09 06:34:29;;;;;;;31.67;15.68;;;-2.30;99.90;;;;;;5012131;28;20025;-79
2022/12/09 06:36:55;;;;;;;29.98;14.43;;;-2.30;99.90;;;;;;5012746;28;20030;-80
2022/12/09 06:39:21;;;;;;;25.50;12.35;;;-2.30;99.90;;;;;;5012070;28;20458;-80
2022/12/09 06:41:51;;;;;;;30.73;15.00;;;-2.30;99.90;;;;;;4994436;28;20049;-86
2022/12/09 06:44:17;;;;;;;25.67;12.82;;;-2.40;99.90;;;;;;5012727;28;20042;-78
2022/12/09 06:46:43;;;;;;;29.77;13.35;;;-2.50;99.90;;;;;;5012537;28;20056;-79
2022/12/09 06:49:09;;;;;;;27.05;14.32;;;-2.50;99.90;;;;;;5011656;28;20041;-79
2022/12/09 06:51:35;;;;;;;30.35;14.85;;;-2.50;99.90;;;;;;5011333;28;20490;-79
2022/12/09 06:54:01;;;;;;;22.35;11.90;;;-2.50;99.90;;;;;;4994201;28;20379;-77
2022/12/09 06:56:28;;;;;;;30.40;13.95;;;-2.60;99.90;;;;;;5012264;28;20030;-79
2022/12/09 06:58:54;;;;;;;31.45;13.82;;;-2.60;99.90;;;;;;4994635;28;20038;-80
2022/12/09 07:01:23;;;;;;;28.00;13.50;;;-2.60;99.90;;;;;;5010674;28;20049;-80
2022/12/09 07:03:55;;;;;;;28.35;12.95;;;-2.60;99.90;;;;;;5012303;28;20049;-79
2022/12/09 07:06:29;;;;;;;31.00;14.68;;;-2.50;99.90;;;;;;5011873;28;20030;-80
2022/12/09 07:08:57;;;;;;;32.08;14.05;;;-2.50;99.90;;;;;;5012304;28;20065;-79
2022/12/09 07:11:24;;;;;;;39.15;16.17;;;-2.60;99.90;;;;;;5015701;28;20199;-79
2022/12/09 07:13:50;;;;;;;33.70;14.20;;;-2.60;99.90;;;;;;5024843;28;20033;-79
2022/12/09 07:16:16;;;;;;;33.30;15.48;;;-2.60;99.90;;;;;;5015761;28;20029;-81
2022/12/09 07:18:43;;;;;;;32.67;15.32;;;-2.60;99.90;;;;;;5012557;28;20041;-81
2022/12/09 07:21:11;;;;;;;31.63;15.45;;;-2.60;99.90;;;;;;5010736;28;20025;-80
2022/12/09 07:23:38;;;;;;;26.38;13.80;;;-2.70;99.90;;;;;;5012040;28;20041;-80
2022/12/09 07:26:05;;;;;;;27.65;12.82;;;-2.70;99.90;;;;;;5013438;28;20033;-78
2022/12/09 07:28:33;;;;;;;31.65;14.15;;;-2.70;99.90;;;;;;5012125;28;20468;-80
2022/12/09 07:31:00;;;;;;;30.58;14.88;;;-2.60;99.90;;;;;;5013899;28;20034;-79
2022/12/09 07:33:26;;;;;;;38.55;17.83;;;-2.60;99.90;;;;;;5011335;28;20076;-81
2022/12/09 07:35:57;;;;;;;37.80;19.27;;;-2.60;99.90;;;;;;5009302;28;20026;-81
2022/12/09 07:38:25;;;;;;;46.00;19.23;;;-2.60;99.90;;;;;;5007557;28;20034;-81
2022/12/09 07:40:51;;;;;;;40.03;19.25;;;-2.50;99.90;;;;;;5005843;28;20026;-80
2022/12/09 07:43:18;;;;;;;36.40;17.83;;;-2.50;99.90;;;;;;5010731;28;20036;-80
2022/12/09 07:45:44;;;;;;;37.78;16.70;;;-2.50;99.90;;;;;;5011970;28;20037;-81
2022/12/09 07:48:10;;;;;;;38.95;16.95;;;-2.50;99.90;;;;;;5011201;28;20053;-80
2022/12/09 07:50:37;;;;;;;35.35;18.52;;;-2.50;99.90;;;;;;5012830;28;20045;-80
2022/12/09 07:53:03;;;;;;;38.63;19.27;;;-2.40;99.90;;;;;;5010937;28;20034;-78
2022/12/09 07:55:29;;;;;;;52.10;25.20;;;-2.40;99.90;;;;;;5011351;28;20030;-79
2022/12/09 07:57:56;;;;;;;39.05;20.05;;;-2.30;99.90;;;;;;4993973;28;20108;-80
2022/12/09 08:00:22;;;;;;;52.65;25.60;;;-2.30;99.90;;;;;;5010674;28;20037;-80
2022/12/09 08:02:50;;;;;;;44.42;21.42;;;-2.30;99.90;;;;;;5010171;28;20054;-80
2022/12/09 08:05:16;;;;;;;37.38;18.77;;;-2.20;99.90;;;;;;5010766;28;20033;-80
2022/12/09 08:07:42;;;;;;;55.33;24.52;;;-2.10;99.90;;;;;;4993808;28;20042;-80
2022/12/09 08:10:09;;;;;;;60.25;30.27;;;-2.00;99.90;;;;;;5010797;28;20026;-79
2022/12/09 08:12:35;;;;;;;95.18;46.67;;;-1.90;99.90;;;;;;5010539;28;20033;-80
2022/12/09 08:15:02;;;;;;;54.95;28.55;;;-1.90;99.90;;;;;;5011462;28;20045;-79
2022/12/09 08:17:29;;;;;;;44.92;20.85;;;-1.80;99.90;;;;;;5012077;28;20041;-81
2022/12/09 08:19:55;;;;;;;42.33;19.83;;;-1.80;99.90;;;;;;4994306;28;20034;-80
2022/12/09 08:22:22;;;;;;;39.83;18.70;;;-1.70;99.90;;;;;;5010366;28;20034;-80
2022/12/09 08:24:48;;;;;;;37.30;18.42;;;-1.70;99.90;;;;;;5015220;28;20034;-79
2022/12/09 08:27:14;;;;;;;33.13;15.38;;;-1.60;99.90;;;;;;5014829;28;20042;-79
2022/12/09 08:29:40;;;;;;;35.13;17.52;;;-1.50;99.90;;;;;;5015039;28;20045;-80
2022/12/09 08:32:06;;;;;;;38.55;18.60;;;-1.40;99.90;;;;;;5013158;28;20042;-78
2022/12/09 08:34:33;;;;;;;39.20;17.60;;;-1.30;99.90;;;;;;5014621;28;20030;-79
2022/12/09 08:36:59;;;;;;;44.80;20.75;;;-1.20;99.90;;;;;;5015637;28;20029;-79
2022/12/09 08:39:25;;;;;;;33.35;18.27;;;-1.10;99.90;;;;;;5014560;28;20033;-79
2022/12/09 08:41:51;;;;;;;36.38;17.45;;;-1.00;99.90;;;;;;5014000;28;20026;-79
2022/12/09 08:44:19;;;;;;;30.70;16.23;;;-1.00;99.90;;;;;;4996389;28;20057;-79
2022/12/09 08:46:47;;;;;;;32.28;16.48;;;-0.90;99.90;;;;;;5014747;28;20033;-79
2022/12/09 08:49:18;;;;;;;33.45;15.82;;;-0.70;99.90;;;;;;5015430;28;20034;-79
2022/12/09 08:51:46;;;;;;;31.58;18.15;;;-0.60;99.90;;;;;;5015240;28;20034;-79
2022/12/09 08:54:12;;;;;;;28.42;15.55;;;-0.50;99.90;;;;;;4996502;28;20044;-79
2022/12/09 08:56:39;;;;;;;25.20;13.60;;;-0.40;99.90;;;;;;4997812;28;20030;-79
2022/12/09 08:59:05;;;;;;;25.65;14.18;;;-0.40;99.90;;;;;;5007537;28;20046;-79
2022/12/09 09:01:33;;;;;;;25.23;12.80;;;-0.40;99.90;;;;;;5009143;28;20551;-78
2022/12/09 09:04:02;;;;;;;20.70;12.32;;;-0.30;96.80;;;;;;5013812;28;20052;-79
2022/12/09 09:06:28;;;;;;;23.25;12.38;;;-0.30;95.00;;;;;;5014959;28;20458;-80
2022/12/09 09:08:56;;;;;;;23.25;12.52;;;-0.20;91.40;;;;;;5016883;28;20038;-80
2022/12/09 09:11:22;;;;;;;20.90;11.13;;;-0.20;87.70;;;;;;4994806;28;20049;-78
2022/12/09 09:13:52;;;;;;;21.67;12.15;;;-0.20;86.90;;;;;;5014081;28;20030;-79
2022/12/09 09:16:23;;;;;;;19.52;10.70;;;-0.10;86.10;;;;;;5007795;28;20026;-79
2022/12/09 09:18:50;;;;;;;28.17;12.10;;;0.00;86.20;;;;;;4993430;28;20046;-79
2022/12/09 09:21:19;;;;;;;26.63;12.73;;;0.00;86.30;;;;;;5013096;28;20482;-78
2022/12/09 09:23:46;;;;;;;23.13;12.65;;;0.20;85.00;;;;;;5007826;28;20057;-80
2022/12/09 09:26:15;;;;;;;25.02;13.13;;;0.30;79.00;;;;;;5013596;28;20088;-80
2022/12/09 09:28:41;;;;;;;24.77;11.77;;;0.40;69.50;;;;;;5014165;28;20038;-80
2022/12/09 09:31:11;;;;;;;26.17;12.93;;;0.50;65.50;;;;;;4989698;28;20030;-79
2022/12/09 09:33:38;;;;;;;26.85;13.68;;;0.50;58.90;;;;;;5013502;28;20051;-79
2022/12/09 09:36:07;;;;;;;22.75;12.65;;;0.70;53.90;;;;;;5013893;28;20033;-80
2022/12/09 09:38:34;;;;;;;23.45;11.68;;;0.80;51.20;;;;;;5013818;28;20046;-80
2022/12/09 09:41:05;;;;;;;25.95;12.55;;;0.80;44.10;;;;;;5014502;28;20026;-80
2022/12/09 09:43:36;;;;;;;20.13;11.75;;;0.90;40.80;;;;;;4994899;28;20051;-80
2022/12/09 09:46:04;;;;;;;26.65;11.50;;;1.00;35.80;;;;;;5007862;28;20049;-79
2022/12/09 09:48:33;;;;;;;19.42;11.10;;;1.10;35.10;;;;;;5013220;28;20049;-78
2022/12/09 09:51:17;;;;;;;19.52;10.90;;;1.20;31.50;;;;;;5007676;28;20026;-78
2022/12/09 09:53:47;;;;;;;19.52;10.07;;;1.20;23.80;;;;;;4990274;28;20030;-76
2022/12/09 09:56:42;;;;;;;20.40;10.75;;;1.40;21.80;;;;;;5013254;28;20050;-77
2022/12/09 09:59:23;;;;;;;17.63;10.35;;;1.50;17.60;;;;;;5004192;28;20046;-80
2022/12/09 10:02:14;;;;;;;16.98;10.10;;;1.50;16.20;;;;;;5015916;28;20344;-77
2022/12/09 10:04:54;;;;;;;18.52;9.55;;;1.50;15.10;;;;;;4995311;28;20042;-77
2022/12/09 10:07:30;;;;;;;20.17;10.00;;;1.50;15.90;;;;;;5012539;28;20034;-77
2022/12/09 10:10:25;;;;;;;19.88;10.50;;;1.50;13.00;;;;;;4995928;28;20053;-77
2022/12/09 10:13:12;;;;;;;20.52;10.75;;;1.50;13.00;;;;;;5012845;28;20039;-77
2022/12/09 10:15:58;;;;;;;20.83;11.13;;;1.60;12.90;;;;;;5013555;28;20045;-77
2022/12/09 10:18:50;;;;;;;18.42;10.93;;;1.70;11.80;;;;;;5012286;28;20102;-77
2022/12/09 10:21:19;;;;;;;20.40;11.13;;;1.90;10.60;;;;;;4999162;28;20060;-77
2022/12/09 10:23:46;;;;;;;21.27;10.45;;;2.00;5.30;;;;;;5010404;28;20459;-77
2022/12/09 10:26:22;;;;;;;23.15;11.75;;;2.10;2.50;;;;;;5010343;28;20045;-79
2022/12/09 10:28:53;;;;;;;22.33;11.80;;;2.20;1.00;;;;;;5013201;28;20041;-78
2022/12/09 10:31:19;;;;;;;20.00;11.88;;;2.30;1.00;;;;;;4992547;28;20073;-80
2022/12/09 10:33:45;;;;;;;17.83;10.90;;;2.50;1.00;;;;;;5012106;28;20034;-80
2022/12/09 10:36:29;;;;;;;18.48;10.48;;;2.50;1.00;;;;;;5012210;28;20076;-77
2022/12/09 10:38:55;;;;;;;17.35;10.40;;;2.60;1.00;;;;;;5013787;28;20368;-78
2022/12/09 10:44:38;;;;;;;16.83;10.13;;;2.70;1.00;;;;;;4993380;28;20089;-80
2022/12/09 10:47:22;;;;;;;19.60;10.25;;;2.80;1.00;;;;;;5012442;28;20030;-79
2022/12/09 10:49:50;;;;;;;17.98;10.45;;;2.90;1.00;;;;;;4995899;28;20042;-77
2022/12/09 10:52:21;;;;;;;17.23;9.98;;;2.90;1.00;;;;;;5013736;28;20038;-80
2022/12/09 10:54:48;;;;;;;15.25;9.23;;;3.00;1.00;;;;;;4993904;28;20038;-80
2022/12/09 10:57:14;;;;;;;16.73;9.15;;;3.10;1.00;;;;;;5011695;28;20032;-77
2022/12/09 10:59:57;;;;;;;15.98;9.57;;;3.10;1.00;;;;;;5012813;28;20041;-79
2022/12/09 11:02:23;;;;;;;17.98;11.32;;;3.00;1.00;;;;;;5006192;28;20069;-79
2022/12/09 11:04:49;;;;;;;15.95;10.02;;;3.10;1.00;;;;;;5011988;28;20143;-79
2022/12/09 11:07:22;;;;;;;14.32;9.45;;;3.20;1.00;;;;;;5019939;28;20033;-77
2022/12/09 11:10:01;;;;;;;14.98;8.90;;;3.40;1.00;;;;;;5028368;28;20038;-79
2022/12/09 11:12:27;;;;;;;13.68;8.98;;;3.40;1.00;;;;;;5013233;28;20026;-79
2022/12/09 11:14:58;;;;;;;15.23;8.70;;;3.40;1.00;;;;;;5011300;28;20352;-79
2022/12/09 11:17:26;;;;;;;13.82;8.57;;;3.30;1.00;;;;;;5011737;28;20040;-79
2022/12/09 11:20:08;;;;;;;15.60;9.35;;;3.30;1.00;;;;;;5012084;28;20046;-79
2022/12/09 11:22:39;;;;;;;17.10;10.70;;;3.50;1.00;;;;;;5011520;28;20036;-79
2022/12/09 11:25:11;;;;;;;16.35;9.55;;;3.50;1.00;;;;;;5012137;28;20131;-78
2022/12/09 11:27:59;;;;;;;16.45;10.25;;;3.40;1.00;;;;;;5014675;28;20035;-79
2022/12/09 11:30:39;;;;;;;15.20;9.25;;;3.50;1.00;;;;;;5017294;28;20053;-79
2022/12/09 11:33:19;;;;;;;18.27;9.55;;;3.60;1.00;;;;;;4999765;28;20038;-79
2022/12/09 11:35:45;;;;;;;17.80;9.13;;;3.70;1.00;;;;;;5013010;28;20042;-78
2022/12/09 11:38:47;;;;;;;19.75;9.65;;;3.60;1.00;;;;;;5011913;28;20045;-78
2022/12/09 11:44:24;;;;;;;15.45;8.73;;;3.60;1.00;;;;;;5012875;28;20033;-79
2022/12/09 11:47:26;;;;;;;13.45;8.73;;;3.60;1.00;;;;;;5012124;28;20038;-79
2022/12/09 11:50:11;;;;;;;16.67;9.02;;;3.70;1.00;;;;;;5012200;28;20042;-79
2022/12/09 11:52:37;;;;;;;13.10;8.63;;;3.60;1.00;;;;;;5011118;28;20058;-79
2022/12/09 11:55:20;;;;;;;15.10;7.70;;;3.70;1.00;;;;;;5010794;28;20045;-79
2022/12/09 11:57:52;;;;;;;16.98;8.38;;;3.80;1.00;;;;;;5007426;28;20105;-80
2022/12/09 12:00:18;;;;;;;;;;;3.90;1.00;;;;;;5015736;28;20498;-78
2022/12/09 12:03:22;;;;;;;13.13;7.25;;;3.90;1.00;;;;;;5015521;28;19944;-79
2022/12/09 12:05:52;;;;;;;14.98;8.77;;;4.00;1.00;;;;;;4961592;28;20395;-81
2022/12/09 12:08:30;;;;;;;13.60;8.57;;;4.10;1.00;;;;;;5015397;28;20042;-78
2022/12/09 12:11:02;;;;;;;13.88;8.63;;;3.90;1.00;;;;;;5009877;28;20057;-79
2022/12/09 12:13:36;;;;;;;11.95;7.13;;;3.80;1.00;;;;;;5013728;28;20034;-81
2022/12/09 12:16:25;;;;;;;14.90;9.15;;;3.80;1.00;;;;;;5016146;28;20049;-80
2022/12/09 12:19:18;;;;;;;15.57;8.57;;;3.80;1.00;;;;;;4998016;28;20041;-80
2022/12/09 12:22:01;;;;;;;15.05;8.82;;;3.90;1.00;;;;;;5007646;28;20042;-80
2022/12/09 12:24:43;;;;;;;15.75;9.20;;;3.90;1.00;;;;;;5013709;28;20045;-80
2022/12/09 12:27:09;;;;;;;16.23;8.88;;;3.70;1.00;;;;;;5015894;28;20034;-80
2022/12/09 12:29:45;;;;;;;14.55;9.82;;;3.70;1.00;;;;;;5014453;28;20202;-80
2022/12/09 12:32:20;;;;;;;13.93;8.88;;;3.60;1.00;;;;;;5015538;28;20041;-81
2022/12/09 12:35:01;;;;;;;14.95;8.88;;;3.60;1.00;;;;;;5017561;28;20030;-80
2022/12/09 12:37:54;;;;;;;14.77;8.93;;;3.50;1.00;;;;;;5014209;28;20034;-79
2022/12/09 12:40:49;;;;;;;13.38;9.50;;;3.40;1.00;;;;;;5013954;28;20049;-79
2022/12/09 12:46:54;;;;;;;13.70;8.45;;;3.30;1.00;;;;;;5014389;28;20041;-80
2022/12/09 12:49:44;;;;;;;15.27;8.93;;;3.30;1.00;;;;;;5014804;28;20483;-78
2022/12/09 12:52:22;;;;;;;14.75;8.52;;;3.30;1.00;;;;;;5015702;28;20034;-80
2022/12/09 12:55:00;;;;;;;16.00;9.20;;;3.30;1.00;;;;;;5008749;28;20041;-80
2022/12/09 12:57:53;;;;;;;15.57;9.45;;;3.30;1.00;;;;;;5013892;28;20030;-80
2022/12/09 13:00:22;;;;;;;15.40;9.43;;;3.30;1.00;;;;;;5014562;28;20034;-77
2022/12/09 13:02:58;;;;;;;18.58;10.10;;;3.30;1.00;;;;;;5013417;28;20076;-80
2022/12/09 13:05:30;;;;;;;15.70;9.35;;;3.30;1.00;;;;;;5014046;28;20037;-80